sensor_id;sensor_type;location;lat;lon;timestamp;P1;durP1;ratioP1;P2;durP2;ratioP2
1346;SDS011;667;48.796;9.480;2023-03-21T00:00:36;2.75;;;2.55;;
1346;SDS011;667;48.796;9.480;2023-03-21T00:03:02;6.50;;;2.80;;
1346;SDS011;667;48.796;9.480;2023-03-21T00:05:28;6.40;;;3.00;;
1346;SDS011;667;48.796;9.480;2023-03-21T00:07:54;2.67;;;2.27;;
1346;SDS011;667;48.796;9.480;2023-03-21T00:10:20;2.63;;;2.30;;
1346;SDS011;667;48.796;9.480;2023-03-21T00:12:46;3.45;;;2.80;;
1346;SDS011;667;48.796;9.480;2023-03-21T00:15:14;3.60;;;2.67;;
1346;SDS011;667;48.796;9.480;2023-03-21T00:17:42;3.00;;;2.60;;
1346;SDS011;667;48.796;9.480;2023-03-21T00:20:08;3.25;;;2.60;;
1346;SDS011;667;48.796;9.480;2023-03-21T00:22:39;3.38;;;2.67;;
1346;SDS011;667;48.796;9.480;2023-03-21T00:25:05;3.97;;;2.40;;
1346;SDS011;667;48.796;9.480;2023-03-21T00:27:32;3.15;;;2.85;;
1346;SDS011;667;48.796;9.480;2023-03-21T00:29:58;4.70;;;4.00;;
1346;SDS011;667;48.796;9.480;2023-03-21T00:32:23;3.00;;;2.50;;
1346;SDS011;667;48.796;9.480;2023-03-21T00:34:49;3.17;;;2.63;;
1346;SDS011;667;48.796;9.480;2023-03-21T00:37:16;3.10;;;2.80;;
1346;SDS011;667;48.796;9.480;2023-03-21T00:39:43;3.45;;;3.10;;
1346;SDS011;667;48.796;9.480;2023-03-21T00:42:13;2.75;;;2.55;;
1346;SDS011;667;48.796;9.480;2023-03-21T00:44:39;4.45;;;2.80;;
1346;SDS011;667;48.796;9.480;2023-03-21T00:47:05;3.30;;;3.00;;
1346;SDS011;667;48.796;9.480;2023-03-21T00:49:31;5.10;;;2.77;;
1346;SDS011;667;48.796;9.480;2023-03-21T00:52:01;3.65;;;3.35;;
1346;SDS011;667;48.796;9.480;2023-03-21T00:54:30;2.80;;;2.50;;
1346;SDS011;667;48.796;9.480;2023-03-21T00:56:56;5.20;;;3.00;;
1346;SDS011;667;48.796;9.480;2023-03-21T00:59:22;3.20;;;2.97;;
1346;SDS011;667;48.796;9.480;2023-03-21T01:01:48;2.60;;;2.40;;
1346;SDS011;667;48.796;9.480;2023-03-21T01:04:13;3.00;;;2.80;;
1346;SDS011;667;48.796;9.480;2023-03-21T01:06:41;2.85;;;2.65;;
1346;SDS011;667;48.796;9.480;2023-03-21T01:09:12;3.17;;;2.90;;
1346;SDS011;667;48.796;9.480;2023-03-21T01:11:42;3.10;;;2.67;;
1346;SDS011;667;48.796;9.480;2023-03-21T01:14:08;3.08;;;2.72;;
1346;SDS011;667;48.796;9.480;2023-03-21T01:16:34;3.72;;;2.90;;
1346;SDS011;667;48.796;9.480;2023-03-21T01:19:00;3.90;;;3.50;;
1346;SDS011;667;48.796;9.480;2023-03-21T01:21:27;4.57;;;2.70;;
1346;SDS011;667;48.796;9.480;2023-03-21T01:23:52;3.90;;;3.00;;
1346;SDS011;667;48.796;9.480;2023-03-21T01:26:18;4.00;;;2.73;;
1346;SDS011;667;48.796;9.480;2023-03-21T01:28:44;4.30;;;2.93;;
1346;SDS011;667;48.796;9.480;2023-03-21T01:31:11;3.77;;;3.20;;
1346;SDS011;667;48.796;9.480;2023-03-21T01:33:38;3.42;;;2.80;;
1346;SDS011;667;48.796;9.480;2023-03-21T01:36:04;2.80;;;2.60;;
1346;SDS011;667;48.796;9.480;2023-03-21T01:38:30;4.10;;;3.20;;
1346;SDS011;667;48.796;9.480;2023-03-21T01:40:58;4.30;;;3.47;;
1346;SDS011;667;48.796;9.480;2023-03-21T01:48:34;4.85;;;3.03;;
1346;SDS011;667;48.796;9.480;2023-03-21T01:51:02;3.95;;;3.25;;
1346;SDS011;667;48.796;9.480;2023-03-21T01:53:30;3.70;;;3.30;;
1346;SDS011;667;48.796;9.480;2023-03-21T01:56:02;3.65;;;3.05;;
1346;SDS011;667;48.796;9.480;2023-03-21T01:58:32;3.08;;;2.78;;
1346;SDS011;667;48.796;9.480;2023-03-21T02:00:59;5.20;;;3.67;;
1346;SDS011;667;48.796;9.480;2023-03-21T02:03:26;3.38;;;3.08;;
1346;SDS011;667;48.796;9.480;2023-03-21T02:05:59;4.57;;;3.28;;
1346;SDS011;667;48.796;9.480;2023-03-21T02:08:30;3.97;;;2.88;;
1346;SDS011;667;48.796;9.480;2023-03-21T02:10:57;3.25;;;2.95;;
1346;SDS011;667;48.796;9.480;2023-03-21T02:13:23;4.85;;;3.25;;
1346;SDS011;667;48.796;9.480;2023-03-21T02:15:55;3.47;;;3.00;;
1346;SDS011;667;48.796;9.480;2023-03-21T02:32:55;2.80;;;2.60;;
1346;SDS011;667;48.796;9.480;2023-03-21T02:38:35;3.30;;;3.00;;
1346;SDS011;667;48.796;9.480;2023-03-21T02:41:31;3.50;;;3.20;;
1346;SDS011;667;48.796;9.480;2023-03-21T02:46:57;7.32;;;3.40;;
1346;SDS011;667;48.796;9.480;2023-03-21T02:49:45;3.90;;;3.13;;
1346;SDS011;667;48.796;9.480;2023-03-21T02:52:31;3.90;;;2.90;;
1346;SDS011;667;48.796;9.480;2023-03-21T02:54:58;4.10;;;3.70;;
1346;SDS011;667;48.796;9.480;2023-03-21T02:57:28;2.92;;;2.72;;
1346;SDS011;667;48.796;9.480;2023-03-21T02:59:54;3.17;;;2.88;;
1346;SDS011;667;48.796;9.480;2023-03-21T03:02:23;6.07;;;2.90;;
1346;SDS011;667;48.796;9.480;2023-03-21T03:04:52;3.00;;;2.80;;
1346;SDS011;667;48.796;9.480;2023-03-21T03:07:34;3.15;;;2.85;;
1346;SDS011;667;48.796;9.480;2023-03-21T03:27:09;2.80;;;2.60;;
1346;SDS011;667;48.796;9.480;2023-03-21T03:29:46;4.18;;;2.83;;
1346;SDS011;667;48.796;9.480;2023-03-21T03:32:15;4.40;;;2.40;;
1346;SDS011;667;48.796;9.480;2023-03-21T03:34:50;3.28;;;2.60;;
1346;SDS011;667;48.796;9.480;2023-03-21T03:37:22;2.70;;;2.50;;
1346;SDS011;667;48.796;9.480;2023-03-21T03:39:59;3.45;;;3.15;;
1346;SDS011;667;48.796;9.480;2023-03-21T03:42:37;2.80;;;2.50;;
1346;SDS011;667;48.796;9.480;2023-03-21T03:45:10;3.40;;;2.85;;
1346;SDS011;667;48.796;9.480;2023-03-21T03:52:56;2.58;;;2.38;;
1346;SDS011;667;48.796;9.480;2023-03-21T03:55:36;3.15;;;2.33;;
1346;SDS011;667;48.796;9.480;2023-03-21T03:58:02;2.90;;;2.70;;
1346;SDS011;667;48.796;9.480;2023-03-21T04:00:30;3.77;;;3.40;;
1346;SDS011;667;48.796;9.480;2023-03-21T04:02:57;2.90;;;2.70;;
1346;SDS011;667;48.796;9.480;2023-03-21T04:05:23;2.78;;;2.58;;
1346;SDS011;667;48.796;9.480;2023-03-21T04:07:50;4.05;;;2.60;;
1346;SDS011;667;48.796;9.480;2023-03-21T04:10:16;3.53;;;2.50;;
1346;SDS011;667;48.796;9.480;2023-03-21T04:12:43;2.70;;;2.50;;
1346;SDS011;667;48.796;9.480;2023-03-21T04:15:09;2.60;;;2.40;;
1346;SDS011;667;48.796;9.480;2023-03-21T04:17:35;3.75;;;2.78;;
1346;SDS011;667;48.796;9.480;2023-03-21T04:20:02;3.20;;;3.00;;
1346;SDS011;667;48.796;9.480;2023-03-21T04:22:29;3.08;;;2.83;;
1346;SDS011;667;48.796;9.480;2023-03-21T04:24:57;2.90;;;2.70;;
1346;SDS011;667;48.796;9.480;2023-03-21T04:27:23;3.00;;;2.57;;
1346;SDS011;667;48.796;9.480;2023-03-21T04:29:48;6.97;;;2.87;;
1346;SDS011;667;48.796;9.480;2023-03-21T04:32:14;3.30;;;2.70;;
1346;SDS011;667;48.796;9.480;2023-03-21T04:34:43;3.00;;;2.70;;
1346;SDS011;667;48.796;9.480;2023-03-21T04:37:14;3.80;;;2.83;;
1346;SDS011;667;48.796;9.480;2023-03-21T04:39:41;3.38;;;2.78;;
1346;SDS011;667;48.796;9.480;2023-03-21T04:42:07;3.30;;;3.00;;
1346;SDS011;667;48.796;9.480;2023-03-21T04:44:32;2.73;;;2.53;;
1346;SDS011;667;48.796;9.480;2023-03-21T04:46:58;3.33;;;2.53;;
1346;SDS011;667;48.796;9.480;2023-03-21T04:49:23;3.13;;;2.57;;
1346;SDS011;667;48.796;9.480;2023-03-21T04:51:49;2.63;;;2.42;;
1346;SDS011;667;48.796;9.480;2023-03-21T04:54:15;2.87;;;2.47;;
1346;SDS011;667;48.796;9.480;2023-03-21T04:56:40;2.90;;;2.70;;
1346;SDS011;667;48.796;9.480;2023-03-21T04:59:08;4.50;;;3.10;;
1346;SDS011;667;48.796;9.480;2023-03-21T05:01:36;3.70;;;2.65;;
1346;SDS011;667;48.796;9.480;2023-03-21T05:04:02;2.70;;;2.50;;
1346;SDS011;667;48.796;9.480;2023-03-21T05:06:29;3.85;;;2.90;;
1346;SDS011;667;48.796;9.480;2023-03-21T05:08:56;3.20;;;2.90;;
1346;SDS011;667;48.796;9.480;2023-03-21T05:11:29;5.03;;;2.80;;
1346;SDS011;667;48.796;9.480;2023-03-21T05:13:59;5.22;;;2.95;;
1346;SDS011;667;48.796;9.480;2023-03-21T05:16:25;3.47;;;3.00;;
1346;SDS011;667;48.796;9.480;2023-03-21T05:18:54;3.50;;;3.20;;
1346;SDS011;667;48.796;9.480;2023-03-21T05:21:21;3.88;;;3.03;;
1346;SDS011;667;48.796;9.480;2023-03-21T05:23:47;2.70;;;2.50;;
1346;SDS011;667;48.796;9.480;2023-03-21T05:26:18;5.60;;;2.90;;
1346;SDS011;667;48.796;9.480;2023-03-21T05:28:45;3.20;;;2.88;;
1346;SDS011;667;48.796;9.480;2023-03-21T05:31:12;3.63;;;3.33;;
1346;SDS011;667;48.796;9.480;2023-03-21T05:33:40;5.05;;;2.63;;
1346;SDS011;667;48.796;9.480;2023-03-21T05:36:09;3.70;;;3.40;;
1346;SDS011;667;48.796;9.480;2023-03-21T05:38:35;3.00;;;2.78;;
1346;SDS011;667;48.796;9.480;2023-03-21T05:41:01;4.63;;;3.15;;
1346;SDS011;667;48.796;9.480;2023-03-21T05:43:27;3.57;;;2.50;;
1346;SDS011;667;48.796;9.480;2023-03-21T05:45:53;3.30;;;3.00;;
1346;SDS011;667;48.796;9.480;2023-03-21T05:48:19;2.80;;;2.60;;
1346;SDS011;667;48.796;9.480;2023-03-21T05:50:44;5.07;;;2.97;;
1346;SDS011;667;48.796;9.480;2023-03-21T05:53:10;4.90;;;2.57;;
1346;SDS011;667;48.796;9.480;2023-03-21T05:55:36;5.75;;;3.25;;
1346;SDS011;667;48.796;9.480;2023-03-21T05:58:02;4.97;;;3.17;;
1346;SDS011;667;48.796;9.480;2023-03-21T06:00:28;4.57;;;3.40;;
1346;SDS011;667;48.796;9.480;2023-03-21T06:02:54;3.80;;;3.25;;
1346;SDS011;667;48.796;9.480;2023-03-21T06:05:20;4.20;;;3.80;;
1346;SDS011;667;48.796;9.480;2023-03-21T06:07:45;3.40;;;3.10;;
1346;SDS011;667;48.796;9.480;2023-03-21T06:10:11;4.10;;;3.70;;
1346;SDS011;667;48.796;9.480;2023-03-21T06:12:37;3.10;;;2.80;;
1346;SDS011;667;48.796;9.480;2023-03-21T06:15:03;4.87;;;3.27;;
1346;SDS011;667;48.796;9.480;2023-03-21T06:17:30;4.57;;;3.75;;
1346;SDS011;667;48.796;9.480;2023-03-21T06:19:56;3.50;;;3.20;;
1346;SDS011;667;48.796;9.480;2023-03-21T06:22:22;5.30;;;3.60;;
1346;SDS011;667;48.796;9.480;2023-03-21T06:24:47;5.33;;;4.23;;
1346;SDS011;667;48.796;9.480;2023-03-21T06:27:13;4.57;;;4.17;;
1346;SDS011;667;48.796;9.480;2023-03-21T06:29:39;3.65;;;3.35;;
1346;SDS011;667;48.796;9.480;2023-03-21T06:32:05;5.13;;;3.70;;
1346;SDS011;667;48.796;9.480;2023-03-21T06:34:31;4.88;;;3.67;;
1346;SDS011;667;48.796;9.480;2023-03-21T06:36:57;6.20;;;3.80;;
1346;SDS011;667;48.796;9.480;2023-03-21T06:39:22;6.23;;;5.30;;
1346;SDS011;667;48.796;9.480;2023-03-21T06:41:48;6.10;;;4.23;;
1346;SDS011;667;48.796;9.480;2023-03-21T06:44:13;5.67;;;4.50;;
1346;SDS011;667;48.796;9.480;2023-03-21T06:46:39;4.90;;;3.90;;
1346;SDS011;667;48.796;9.480;2023-03-21T06:49:05;6.03;;;4.43;;
1346;SDS011;667;48.796;9.480;2023-03-21T06:51:31;5.13;;;4.47;;
1346;SDS011;667;48.796;9.480;2023-03-21T06:53:56;4.93;;;4.50;;
1346;SDS011;667;48.796;9.480;2023-03-21T06:56:22;5.47;;;4.97;;
1346;SDS011;667;48.796;9.480;2023-03-21T06:58:47;7.53;;;5.67;;
1346;SDS011;667;48.796;9.480;2023-03-21T07:01:13;6.13;;;5.53;;
1346;SDS011;667;48.796;9.480;2023-03-21T07:03:39;5.97;;;5.47;;
1346;SDS011;667;48.796;9.480;2023-03-21T07:06:06;7.03;;;5.50;;
1346;SDS011;667;48.796;9.480;2023-03-21T07:08:36;6.07;;;5.35;;
1346;SDS011;667;48.796;9.480;2023-03-21T07:11:02;7.65;;;6.07;;
1346;SDS011;667;48.796;9.480;2023-03-21T07:13:28;6.00;;;5.43;;
1346;SDS011;667;48.796;9.480;2023-03-21T07:15:54;6.72;;;6.13;;
1346;SDS011;667;48.796;9.480;2023-03-21T07:18:20;8.27;;;5.60;;
1346;SDS011;667;48.796;9.480;2023-03-21T07:20:47;7.75;;;6.28;;
1346;SDS011;667;48.796;9.480;2023-03-21T07:23:21;7.05;;;5.78;;
1346;SDS011;667;48.796;9.480;2023-03-21T07:25:48;5.72;;;5.22;;
1346;SDS011;667;48.796;9.480;2023-03-21T07:28:14;7.88;;;5.88;;
1346;SDS011;667;48.796;9.480;2023-03-21T07:30:41;6.18;;;5.68;;
1346;SDS011;667;48.796;9.480;2023-03-21T07:33:08;8.65;;;6.13;;
1346;SDS011;667;48.796;9.480;2023-03-21T07:35:33;6.20;;;5.60;;
1346;SDS011;667;48.796;9.480;2023-03-21T07:38:01;5.95;;;5.45;;
1346;SDS011;667;48.796;9.480;2023-03-21T07:40:30;10.00;;;6.40;;
1346;SDS011;667;48.796;9.480;2023-03-21T07:42:56;6.57;;;5.97;;
1346;SDS011;667;48.796;9.480;2023-03-21T07:45:21;8.60;;;5.90;;
1346;SDS011;667;48.796;9.480;2023-03-21T07:47:49;6.95;;;6.10;;
1346;SDS011;667;48.796;9.480;2023-03-21T07:50:15;6.07;;;5.50;;
1346;SDS011;667;48.796;9.480;2023-03-21T07:52:41;6.43;;;5.78;;
1346;SDS011;667;48.796;9.480;2023-03-21T07:55:07;5.87;;;5.40;;
1346;SDS011;667;48.796;9.480;2023-03-21T07:57:33;7.20;;;5.60;;
1346;SDS011;667;48.796;9.480;2023-03-21T08:00:00;5.93;;;5.32;;
1346;SDS011;667;48.796;9.480;2023-03-21T08:02:26;9.27;;;6.00;;
1346;SDS011;667;48.796;9.480;2023-03-21T08:04:51;6.47;;;5.67;;
1346;SDS011;667;48.796;9.480;2023-03-21T08:07:17;6.17;;;5.57;;
1346;SDS011;667;48.796;9.480;2023-03-21T08:09:43;7.00;;;5.90;;
1346;SDS011;667;48.796;9.480;2023-03-21T08:12:09;6.87;;;5.67;;
1346;SDS011;667;48.796;9.480;2023-03-21T08:14:35;7.38;;;6.60;;
1346;SDS011;667;48.796;9.480;2023-03-21T08:17:01;5.77;;;5.30;;
1346;SDS011;667;48.796;9.480;2023-03-21T08:19:28;6.25;;;5.65;;
1346;SDS011;667;48.796;9.480;2023-03-21T08:21:53;6.10;;;5.50;;
1346;SDS011;667;48.796;9.480;2023-03-21T08:24:19;6.10;;;5.50;;
1346;SDS011;667;48.796;9.480;2023-03-21T08:26:45;4.60;;;4.20;;
1346;SDS011;667;48.796;9.480;2023-03-21T08:29:13;4.93;;;4.53;;
1346;SDS011;667;48.796;9.480;2023-03-21T08:31:39;4.40;;;4.05;;
1346;SDS011;667;48.796;9.480;2023-03-21T08:34:05;6.85;;;5.03;;
1346;SDS011;667;48.796;9.480;2023-03-21T08:36:31;5.20;;;4.80;;
1346;SDS011;667;48.796;9.480;2023-03-21T08:39:01;7.45;;;5.25;;
1346;SDS011;667;48.796;9.480;2023-03-21T08:41:33;5.22;;;4.78;;
1346;SDS011;667;48.796;9.480;2023-03-21T08:43:59;4.90;;;4.43;;
1346;SDS011;667;48.796;9.480;2023-03-21T08:46:25;4.67;;;4.23;;
1346;SDS011;667;48.796;9.480;2023-03-21T08:48:52;4.25;;;3.85;;
1346;SDS011;667;48.796;9.480;2023-03-21T08:51:18;4.13;;;3.58;;
1346;SDS011;667;48.796;9.480;2023-03-21T08:53:46;3.97;;;3.58;;
1346;SDS011;667;48.796;9.480;2023-03-21T08:56:14;5.35;;;3.67;;
1346;SDS011;667;48.796;9.480;2023-03-21T08:58:40;5.40;;;3.17;;
1346;SDS011;667;48.796;9.480;2023-03-21T09:01:06;4.23;;;3.40;;
1346;SDS011;667;48.796;9.480;2023-03-21T09:03:35;3.93;;;3.63;;
1346;SDS011;667;48.796;9.480;2023-03-21T09:06:03;3.95;;;3.50;;
1346;SDS011;667;48.796;9.480;2023-03-21T09:08:29;3.87;;;3.20;;
1346;SDS011;667;48.796;9.480;2023-03-21T09:10:55;4.00;;;3.30;;
1346;SDS011;667;48.796;9.480;2023-03-21T09:13:21;3.50;;;3.20;;
1346;SDS011;667;48.796;9.480;2023-03-21T09:15:47;4.90;;;3.00;;
1346;SDS011;667;48.796;9.480;2023-03-21T09:18:13;3.40;;;3.10;;
1346;SDS011;667;48.796;9.480;2023-03-21T09:20:43;3.57;;;3.27;;
1346;SDS011;667;48.796;9.480;2023-03-21T09:23:11;2.87;;;2.67;;
1346;SDS011;667;48.796;9.480;2023-03-21T09:25:39;4.17;;;2.97;;
1346;SDS011;667;48.796;9.480;2023-03-21T09:28:06;3.30;;;3.10;;
1346;SDS011;667;48.796;9.480;2023-03-21T09:30:33;3.10;;;2.80;;
1346;SDS011;667;48.796;9.480;2023-03-21T09:33:00;3.10;;;2.80;;
1346;SDS011;667;48.796;9.480;2023-03-21T09:35:27;3.03;;;2.83;;
1346;SDS011;667;48.796;9.480;2023-03-21T09:37:54;3.57;;;2.73;;
1346;SDS011;667;48.796;9.480;2023-03-21T09:51:15;2.63;;;2.30;;
1346;SDS011;667;48.796;9.480;2023-03-21T09:53:42;2.03;;;1.90;;
1346;SDS011;667;48.796;9.480;2023-03-21T09:56:12;2.77;;;2.50;;
1346;SDS011;667;48.796;9.480;2023-03-21T09:58:42;2.40;;;2.20;;
1346;SDS011;667;48.796;9.480;2023-03-21T10:01:15;2.13;;;1.93;;
1346;SDS011;667;48.796;9.480;2023-03-21T10:03:52;2.37;;;2.17;;
1346;SDS011;667;48.796;9.480;2023-03-21T10:06:19;3.40;;;2.30;;
1346;SDS011;667;48.796;9.480;2023-03-21T10:09:15;2.30;;;1.97;;
1346;SDS011;667;48.796;9.480;2023-03-21T10:11:49;2.50;;;2.30;;
1346;SDS011;667;48.796;9.480;2023-03-21T10:14:24;2.47;;;2.27;;
1346;SDS011;667;48.796;9.480;2023-03-21T10:17:00;2.60;;;2.40;;
1346;SDS011;667;48.796;9.480;2023-03-21T10:19:37;2.13;;;1.93;;
1346;SDS011;667;48.796;9.480;2023-03-21T10:22:03;2.70;;;2.47;;
1346;SDS011;667;48.796;9.480;2023-03-21T10:24:28;2.70;;;2.13;;
1346;SDS011;667;48.796;9.480;2023-03-21T10:26:57;4.90;;;2.30;;
1346;SDS011;667;48.796;9.480;2023-03-21T10:29:25;2.10;;;1.80;;
1346;SDS011;667;48.796;9.480;2023-03-21T10:31:53;2.40;;;1.93;;
1346;SDS011;667;48.796;9.480;2023-03-21T10:34:35;2.37;;;2.07;;
1346;SDS011;667;48.796;9.480;2023-03-21T10:37:05;2.10;;;1.80;;
1346;SDS011;667;48.796;9.480;2023-03-21T10:39:32;2.43;;;1.77;;
1346;SDS011;667;48.796;9.480;2023-03-21T10:42:01;2.07;;;1.73;;
1346;SDS011;667;48.796;9.480;2023-03-21T10:44:32;2.00;;;1.80;;
1346;SDS011;667;48.796;9.480;2023-03-21T10:47:02;2.27;;;1.60;;
1346;SDS011;667;48.796;9.480;2023-03-21T10:49:30;1.83;;;1.50;;
1346;SDS011;667;48.796;9.480;2023-03-21T10:51:57;1.40;;;1.30;;
1346;SDS011;667;48.796;9.480;2023-03-21T10:54:26;1.37;;;1.27;;
1346;SDS011;667;48.796;9.480;2023-03-21T10:57:07;1.70;;;1.60;;
1346;SDS011;667;48.796;9.480;2023-03-21T11:02:15;3.07;;;1.73;;
1346;SDS011;667;48.796;9.480;2023-03-21T11:04:44;2.47;;;1.57;;
1346;SDS011;667;48.796;9.480;2023-03-21T11:07:11;1.70;;;1.50;;
1346;SDS011;667;48.796;9.480;2023-03-21T11:09:43;1.43;;;1.33;;
1346;SDS011;667;48.796;9.480;2023-03-21T11:12:14;1.67;;;1.57;;
1346;SDS011;667;48.796;9.480;2023-03-21T11:14:43;2.03;;;1.60;;
1346;SDS011;667;48.796;9.480;2023-03-21T11:19:52;1.40;;;1.30;;
1346;SDS011;667;48.796;9.480;2023-03-21T11:22:24;1.80;;;1.60;;
1346;SDS011;667;48.796;9.480;2023-03-21T11:24:55;2.50;;;1.63;;
1346;SDS011;667;48.796;9.480;2023-03-21T11:27:24;1.70;;;1.60;;
1346;SDS011;667;48.796;9.480;2023-03-21T11:29:53;2.87;;;1.63;;
1346;SDS011;667;48.796;9.480;2023-03-21T11:32:30;2.67;;;1.37;;
1346;SDS011;667;48.796;9.480;2023-03-21T11:37:38;1.50;;;1.40;;
1346;SDS011;667;48.796;9.480;2023-03-21T11:45:40;1.80;;;1.70;;
1346;SDS011;667;48.796;9.480;2023-03-21T11:48:29;1.73;;;1.40;;
1346;SDS011;667;48.796;9.480;2023-03-21T11:51:45;2.03;;;1.43;;
1346;SDS011;667;48.796;9.480;2023-03-21T11:54:18;2.13;;;1.30;;
1346;SDS011;667;48.796;9.480;2023-03-21T11:57:00;1.83;;;1.40;;
1346;SDS011;667;48.796;9.480;2023-03-21T11:59:51;3.07;;;1.30;;
1346;SDS011;667;48.796;9.480;2023-03-21T12:02:38;2.40;;;1.40;;
1346;SDS011;667;48.796;9.480;2023-03-21T12:05:31;1.73;;;1.63;;
1346;SDS011;667;48.796;9.480;2023-03-21T12:11:00;2.20;;;1.60;;
1346;SDS011;667;48.796;9.480;2023-03-21T12:21:51;1.63;;;1.50;;
1346;SDS011;667;48.796;9.480;2023-03-21T12:24:48;2.60;;;1.70;;
1346;SDS011;667;48.796;9.480;2023-03-21T12:27:41;2.60;;;1.97;;
1346;SDS011;667;48.796;9.480;2023-03-21T12:30:26;2.13;;;1.93;;
1346;SDS011;667;48.796;9.480;2023-03-21T12:33:10;2.37;;;2.03;;
1346;SDS011;667;48.796;9.480;2023-03-21T12:38:43;1.93;;;1.73;;
1346;SDS011;667;48.796;9.480;2023-03-21T12:46:28;2.43;;;1.70;;
1346;SDS011;667;48.796;9.480;2023-03-21T12:51:48;2.20;;;2.00;;
1346;SDS011;667;48.796;9.480;2023-03-21T12:54:32;2.43;;;1.43;;
1346;SDS011;667;48.796;9.480;2023-03-21T12:59:51;2.83;;;1.90;;
1346;SDS011;667;48.796;9.480;2023-03-21T13:02:37;1.90;;;1.57;;
1346;SDS011;667;48.796;9.480;2023-03-21T13:05:30;1.60;;;1.50;;
1346;SDS011;667;48.796;9.480;2023-03-21T13:10:27;1.83;;;1.20;;
1346;SDS011;667;48.796;9.480;2023-03-21T13:18:12;1.90;;;1.80;;
1346;SDS011;667;48.796;9.480;2023-03-21T13:20:53;2.10;;;1.90;;
1346;SDS011;667;48.796;9.480;2023-03-21T13:23:32;2.50;;;1.80;;
1346;SDS011;667;48.796;9.480;2023-03-21T13:26:00;2.17;;;1.70;;
1346;SDS011;667;48.796;9.480;2023-03-21T13:28:29;2.23;;;1.43;;
1346;SDS011;667;48.796;9.480;2023-03-21T13:33:44;2.10;;;1.90;;
1346;SDS011;667;48.796;9.480;2023-03-21T13:36:13;2.03;;;1.83;;
1346;SDS011;667;48.796;9.480;2023-03-21T13:38:43;3.77;;;1.50;;
1346;SDS011;667;48.796;9.480;2023-03-21T13:41:16;2.00;;;1.40;;
1346;SDS011;667;48.796;9.480;2023-03-21T13:43:54;2.00;;;1.90;;
1346;SDS011;667;48.796;9.480;2023-03-21T13:46:34;2.20;;;1.70;;
1346;SDS011;667;48.796;9.480;2023-03-21T13:49:30;2.20;;;1.93;;
1346;SDS011;667;48.796;9.480;2023-03-21T13:51:58;1.90;;;1.47;;
1346;SDS011;667;48.796;9.480;2023-03-21T13:56:57;2.17;;;1.70;;
1346;SDS011;667;48.796;9.480;2023-03-21T14:02:00;3.50;;;1.80;;
1346;SDS011;667;48.796;9.480;2023-03-21T14:04:28;1.70;;;1.60;;
1346;SDS011;667;48.796;9.480;2023-03-21T14:06:57;1.93;;;1.73;;
1346;SDS011;667;48.796;9.480;2023-03-21T14:09:48;2.13;;;1.93;;
1346;SDS011;667;48.796;9.480;2023-03-21T14:12:21;3.03;;;1.90;;
1346;SDS011;667;48.796;9.480;2023-03-21T14:14:52;2.57;;;1.80;;
1346;SDS011;667;48.796;9.480;2023-03-21T14:17:24;4.33;;;1.60;;
1346;SDS011;667;48.796;9.480;2023-03-21T14:19:53;2.87;;;1.97;;
1346;SDS011;667;48.796;9.480;2023-03-21T14:22:34;2.30;;;2.10;;
1346;SDS011;667;48.796;9.480;2023-03-21T14:25:00;2.93;;;1.93;;
1346;SDS011;667;48.796;9.480;2023-03-21T14:27:30;1.60;;;1.50;;
1346;SDS011;667;48.796;9.480;2023-03-21T14:29:58;2.53;;;2.33;;
1346;SDS011;667;48.796;9.480;2023-03-21T14:32:26;1.93;;;1.73;;
1346;SDS011;667;48.796;9.480;2023-03-21T14:34:53;2.77;;;2.20;;
1346;SDS011;667;48.796;9.480;2023-03-21T14:40:00;2.00;;;1.90;;
1346;SDS011;667;48.796;9.480;2023-03-21T14:42:33;1.70;;;1.60;;
1346;SDS011;667;48.796;9.480;2023-03-21T14:45:09;2.00;;;1.90;;
1346;SDS011;667;48.796;9.480;2023-03-21T14:47:40;3.20;;;2.40;;
1346;SDS011;667;48.796;9.480;2023-03-21T14:50:08;3.20;;;1.90;;
1346;SDS011;667;48.796;9.480;2023-03-21T14:52:35;2.17;;;1.83;;
1346;SDS011;667;48.796;9.480;2023-03-21T14:55:04;2.80;;;1.83;;
1346;SDS011;667;48.796;9.480;2023-03-21T14:57:39;2.40;;;2.20;;
1346;SDS011;667;48.796;9.480;2023-03-21T15:00:06;4.37;;;1.87;;
1346;SDS011;667;48.796;9.480;2023-03-21T15:02:39;2.40;;;2.20;;
1346;SDS011;667;48.796;9.480;2023-03-21T15:05:24;1.90;;;1.80;;
1346;SDS011;667;48.796;9.480;2023-03-21T15:07:58;2.17;;;1.97;;
1346;SDS011;667;48.796;9.480;2023-03-21T15:10:31;2.40;;;1.93;;
1346;SDS011;667;48.796;9.480;2023-03-21T15:12:58;4.17;;;2.00;;
1346;SDS011;667;48.796;9.480;2023-03-21T15:15:26;3.27;;;2.17;;
1346;SDS011;667;48.796;9.480;2023-03-21T15:17:53;3.17;;;2.00;;
1346;SDS011;667;48.796;9.480;2023-03-21T15:20:24;1.83;;;1.73;;
1346;SDS011;667;48.796;9.480;2023-03-21T15:22:54;2.50;;;2.27;;
1346;SDS011;667;48.796;9.480;2023-03-21T15:25:25;2.00;;;1.90;;
1346;SDS011;667;48.796;9.480;2023-03-21T15:27:53;2.77;;;1.90;;
1346;SDS011;667;48.796;9.480;2023-03-21T15:32:45;3.27;;;2.70;;
1346;SDS011;667;48.796;9.480;2023-03-21T15:35:12;2.57;;;2.37;;
1346;SDS011;667;48.796;9.480;2023-03-21T15:37:41;3.10;;;2.60;;
1346;SDS011;667;48.796;9.480;2023-03-21T15:42:38;3.80;;;2.93;;
1346;SDS011;667;48.796;9.480;2023-03-21T15:50:06;3.13;;;2.83;;
1346;SDS011;667;48.796;9.480;2023-03-21T15:52:35;3.27;;;2.33;;
1346;SDS011;667;48.796;9.480;2023-03-21T15:55:01;2.90;;;2.60;;
1346;SDS011;667;48.796;9.480;2023-03-21T15:57:40;4.13;;;2.83;;
1346;SDS011;667;48.796;9.480;2023-03-21T16:02:42;2.63;;;2.37;;
1346;SDS011;667;48.796;9.480;2023-03-21T16:10:45;4.17;;;3.70;;
1346;SDS011;667;48.796;9.480;2023-03-21T16:13:12;3.53;;;3.23;;
1346;SDS011;667;48.796;9.480;2023-03-21T16:15:38;6.53;;;4.40;;
1346;SDS011;667;48.796;9.480;2023-03-21T16:18:05;4.13;;;3.80;;
1346;SDS011;667;48.796;9.480;2023-03-21T16:20:33;6.83;;;4.37;;
1346;SDS011;667;48.796;9.480;2023-03-21T16:23:01;5.07;;;4.33;;
1346;SDS011;667;48.796;9.480;2023-03-21T16:25:28;6.30;;;4.37;;
1346;SDS011;667;48.796;9.480;2023-03-21T16:27:54;5.30;;;4.80;;
1346;SDS011;667;48.796;9.480;2023-03-21T16:30:20;4.50;;;3.57;;
1346;SDS011;667;48.796;9.480;2023-03-21T16:32:46;4.43;;;3.80;;
1346;SDS011;667;48.796;9.480;2023-03-21T16:35:14;3.90;;;3.60;;
1346;SDS011;667;48.796;9.480;2023-03-21T16:37:40;7.40;;;3.60;;
1346;SDS011;667;48.796;9.480;2023-03-21T16:40:14;3.67;;;3.37;;
1346;SDS011;667;48.796;9.480;2023-03-21T16:43:00;4.63;;;3.60;;
1346;SDS011;667;48.796;9.480;2023-03-21T16:45:26;3.80;;;3.40;;
1346;SDS011;667;48.796;9.480;2023-03-21T16:47:55;5.03;;;3.80;;
1346;SDS011;667;48.796;9.480;2023-03-21T16:50:26;6.83;;;4.90;;
1346;SDS011;667;48.796;9.480;2023-03-21T16:52:52;6.37;;;5.20;;
1346;SDS011;667;48.796;9.480;2023-03-21T16:55:19;5.47;;;3.50;;
1346;SDS011;667;48.796;9.480;2023-03-21T16:57:45;4.10;;;3.10;;
1346;SDS011;667;48.796;9.480;2023-03-21T17:00:13;4.33;;;3.20;;
1346;SDS011;667;48.796;9.480;2023-03-21T17:02:44;3.13;;;2.83;;
1346;SDS011;667;48.796;9.480;2023-03-21T17:05:14;3.13;;;2.83;;
1346;SDS011;667;48.796;9.480;2023-03-21T17:07:39;4.27;;;2.50;;
1346;SDS011;667;48.796;9.480;2023-03-21T17:10:28;3.30;;;2.93;;
1346;SDS011;667;48.796;9.480;2023-03-21T17:12:52;3.70;;;2.50;;
1346;SDS011;667;48.796;9.480;2023-03-21T17:15:18;8.70;;;3.23;;
1346;SDS011;667;48.796;9.480;2023-03-21T17:17:44;4.07;;;2.70;;
1346;SDS011;667;48.796;9.480;2023-03-21T17:20:11;3.20;;;2.77;;
1346;SDS011;667;48.796;9.480;2023-03-21T17:22:41;3.30;;;2.23;;
1346;SDS011;667;48.796;9.480;2023-03-21T17:25:07;2.70;;;2.50;;
1346;SDS011;667;48.796;9.480;2023-03-21T17:27:32;3.13;;;2.83;;
1346;SDS011;667;48.796;9.480;2023-03-21T17:29:58;4.00;;;2.83;;
1346;SDS011;667;48.796;9.480;2023-03-21T17:32:23;4.33;;;2.87;;
1346;SDS011;667;48.796;9.480;2023-03-21T17:34:49;3.27;;;2.93;;
1346;SDS011;667;48.796;9.480;2023-03-21T17:37:17;3.10;;;2.20;;
1346;SDS011;667;48.796;9.480;2023-03-21T17:39:43;4.13;;;2.90;;
1346;SDS011;667;48.796;9.480;2023-03-21T17:42:13;2.33;;;2.13;;
1346;SDS011;667;48.796;9.480;2023-03-21T17:44:44;2.77;;;2.33;;
1346;SDS011;667;48.796;9.480;2023-03-21T17:47:10;5.37;;;3.00;;
1346;SDS011;667;48.796;9.480;2023-03-21T17:49:36;3.20;;;2.70;;
1346;SDS011;667;48.796;9.480;2023-03-21T17:52:02;3.67;;;1.97;;
1346;SDS011;667;48.796;9.480;2023-03-21T17:54:28;4.67;;;2.57;;
1346;SDS011;667;48.796;9.480;2023-03-21T17:56:53;2.60;;;2.10;;